Texas General Land Office
 Texas General Land Office
 George P. Bush, Commissioner

 Oil Spill Prevention
 & Response

Texas Automated Buoy System
Real Time Ocean Observations
Supporting Oil Spill Prevention and
Response since 1995
Geochemical and Environmental Research Group

NOAA - NDBC Buoy 42019 -- Texas Automated Buoy System

NBDC Buoy 42019
Freeport, TX
Conditions at 08/18/2018 07:20 UTC (08/18/2018 02:20 CDT)
27° 54.7830'N   95° 21.6000'W
60nm South of Freeport, TX
Anemometer height: 5m
Water Depth: 269 feet (82 meters)
Wind: 6.0 m/s (11.7 kts)
          From 170°T (S)
Wind Gust: 7.00 m/s (13.6 kts) Pressure: 1017.1 mb (30.03 inHg)
Air Temp: 29°C (85 °F) Dewpoint: 26°C (78°F) Relative Humidity: 80%
Sea Surf Temp: 30 °C (86 °F) Wave Height: -99.0m (-324.8 ft) Wave Period: -99
  


IMPORTANT: Notice to Mariners


Today's Velocity Data

  Buoy     Date      Time     East   North   Speed  Dir(°T) Wave Ht WvPer  Num
|  ID  |          |  (UTC) | (m/s) | (m/s) | (m/s) |(FROM) |  (m)  | secs| pts |
+======+==========+========+=======+=======+=======+=======+=======+=====+=====+
  42019 08/15/2018 06:50:00   -5.60   -0.89    5.67     261     0.8     6     6
  42019 08/15/2018 12:50:00   -7.74   -1.23    7.83     261     0.9     5     6
  42019 08/16/2018 00:00:00    0.04   -4.72    4.72     180     0.2     1    28
  42019 08/16/2018 00:10:00    1.71   -4.70    5.00     160     0.0     0     1
  42019 08/16/2018 00:20:00    0.69   -3.94    4.00     170     0.8     6     1
  42019 08/16/2018 00:30:00    1.71   -4.70    5.00     160     0.0     0     1
  42019 08/16/2018 00:40:00    0.87   -4.92    5.00     170     0.0     0     1
  42019 08/16/2018 00:50:00    0.87   -4.92    5.00     170     0.0     0     1
  42019 08/16/2018 06:00:00    1.86   -6.12    6.39     163     0.1     1    31
  42019 08/16/2018 06:10:00    1.22   -6.89    7.00     170     0.0     0     1
  42019 08/16/2018 06:20:00    1.22   -6.89    7.00     170     0.9     6     1
  42019 08/16/2018 06:30:00    1.22   -6.89    7.00     170     0.0     0     1
  42019 08/16/2018 06:40:00    1.39   -7.88    8.00     170     0.0     0     1
  42019 08/16/2018 06:50:00    1.39   -7.88    8.00     170     0.0     0     1
  42019 08/16/2018 12:00:00    3.24   -6.23    7.02     152     0.2     1    31
  42019 08/16/2018 12:10:00    0.00   -6.00    6.00     180     0.0     0     1
  42019 08/16/2018 12:20:00    0.00   -6.00    6.00     180     1.0     5     1
  42019 08/16/2018 12:30:00    0.00   -5.00    5.00     180     0.0     0     1
  42019 08/16/2018 12:40:00    0.87   -4.92    5.00     170     0.0     0     1
  42019 08/16/2018 12:50:00    0.87   -4.92    5.00     170     0.0     0     1
  42019 08/16/2018 18:00:00    1.10   -3.96    4.11     164     0.1     1    31
  42019 08/16/2018 18:10:00    1.37   -3.76    4.00     160     0.0     0     1
  42019 08/16/2018 18:20:00    1.37   -3.76    4.00     160     0.9     6     1
  42019 08/16/2018 18:30:00    2.00   -3.46    4.00     150     0.0     0     1
  42019 08/16/2018 18:40:00    2.00   -3.46    4.00     150     0.0     0     1
  42019 08/16/2018 18:50:00    2.50   -4.33    5.00     150     0.0     0     1
  42019 08/17/2018 00:00:00    2.22   -4.49    5.01     154     0.1     1    31
  42019 08/17/2018 00:10:00    3.50   -6.06    7.00     150     0.0     0     1
  42019 08/17/2018 00:20:00    3.50   -6.06    7.00     150     0.8     6     1
  42019 08/17/2018 00:30:00    3.00   -5.20    6.00     150     0.0     0     1
  42019 08/17/2018 00:40:00    3.50   -6.06    7.00     150     0.0     0     1
  42019 08/17/2018 00:50:00    3.50   -6.06    7.00     150     0.0     0     1
  42019 08/17/2018 06:00:00    2.03   -6.02    6.36     161     0.2     1    31
  42019 08/17/2018 06:10:00    0.00   -5.00    5.00     180     0.0     0     1
  42019 08/17/2018 06:20:00    0.87   -4.92    5.00     170     0.8     5     1
  42019 08/17/2018 06:30:00    0.87   -4.92    5.00     170     0.0     0     1
  42019 08/17/2018 06:40:00    0.87   -4.92    5.00     170     0.0     0     1
  42019 08/17/2018 06:50:00    0.00   -6.00    6.00     180     0.0     0     1
  42019 08/17/2018 12:00:00    0.00   -4.79    4.79     180     0.1     1    31
  42019 08/17/2018 12:10:00    0.69   -3.94    4.00     170     0.0     0     1
  42019 08/17/2018 12:20:00    0.00   -4.00    4.00     180     0.7     6     1
  42019 08/17/2018 12:30:00    0.00   -4.00    4.00     180     0.0     0     1
  42019 08/17/2018 12:40:00   -0.69   -3.94    4.00     190     0.0     0     1
  42019 08/17/2018 12:50:00    0.00   -3.00    3.00     180     0.0     0     1
  42019 08/17/2018 18:00:00    0.86   -2.72    2.85     162     0.1     1    31
  42019 08/17/2018 18:10:00    1.00   -1.73    2.00     150     0.0     0     1
  42019 08/17/2018 18:20:00    1.29   -1.53    2.00     140     0.6     5     1
  42019 08/17/2018 18:30:00    0.77   -0.64    1.00     130     0.0     0     1
  42019 08/17/2018 18:40:00    1.73   -1.00    2.00     120     0.0     0     1
  42019 08/17/2018 18:50:00    1.73   -1.00    2.00     120     0.0     0     1